Time;durP1;ratioP1;P1;durP2;ratioP2;P2;SDS_P1;SDS_P2;PMS_P1;PMS_P2;Temp;Humidity;BMP_temperature;BMP_pressure;BME280_temperature;BME280_humidity;BME280_pressure;Samples;Min_cycle;Max_cycle;Signal;HPM_P1;HPM_P2
2021/12/29 00:00:43;;;;;;;6.50;3.53;;;;;;;;;;5030910;28;20123;-36
2021/12/29 00:03:08;;;;;;;3.65;1.95;;;;;;;;;;5031123;28;20041;-36
2021/12/29 00:05:34;;;;;;;4.00;2.40;;;;;;;;;;5030798;28;20018;-36
2021/12/29 00:07:59;;;;;;;3.67;2.75;;;;;;;;;;5031142;28;20029;-36
2021/12/29 00:10:25;;;;;;;4.70;3.28;;;;;;;;;;5030912;28;20376;-36
2021/12/29 00:12:53;;;;;;;10.60;4.57;;;;;;;;;;5030986;28;20083;-36
2021/12/29 00:15:20;;;;;;;10.13;3.75;;;;;;;;;;5030887;28;20476;-36
2021/12/29 00:17:46;;;;;;;9.68;4.13;;;;;;;;;;5030908;28;20029;-36
2021/12/29 00:20:13;;;;;;;7.63;3.70;;;;;;;;;;5030793;28;20617;-36
2021/12/29 00:22:38;;;;;;;6.78;3.75;;;;;;;;;;5030540;28;20645;-36
2021/12/29 00:25:05;;;;;;;5.75;3.70;;;;;;;;;;5031859;28;20041;-36
2021/12/29 00:27:30;;;;;;;6.05;4.10;;;;;;;;;;5034378;28;20029;-36
2021/12/29 00:29:55;;;;;;;7.00;3.20;;;;;;;;;;5034645;28;20036;-36
2021/12/29 00:32:39;;;;;;;8.63;3.42;;;;;;;;;;5034669;28;20133;-37
2021/12/29 00:35:23;;;;;;;8.82;4.43;;;;;;;;;;5034615;28;20044;-36
2021/12/29 00:38:11;;;;;;;7.47;4.18;;;;;;;;;;5034279;28;20049;-36
2021/12/29 00:40:55;;;;;;;6.43;4.55;;;;;;;;;;5034241;28;20064;-36
2021/12/29 00:43:39;;;;;;;6.60;4.22;;;;;;;;;;5034137;28;20107;-36
2021/12/29 00:46:30;;;;;;;11.35;4.30;;;;;;;;;;5018507;28;20129;-36
2021/12/29 00:48:56;;;;;;;6.97;4.35;;;;;;;;;;5033971;28;20116;-36
2021/12/29 00:51:22;;;;;;;7.65;4.22;;;;;;;;;;5034370;28;20029;-36
2021/12/29 00:53:48;;;;;;;8.68;5.18;;;;;;;;;;5033977;28;20033;-36
2021/12/29 00:56:13;;;;;;;6.93;3.88;;;;;;;;;;5032676;28;20309;-36
2021/12/29 00:58:39;;;;;;;8.70;5.38;;;;;;;;;;5034072;28;20037;-36
2021/12/29 01:01:04;;;;;;;8.80;4.95;;;;;;;;;;5032941;28;20644;-36
2021/12/29 01:03:30;;;;;;;7.80;4.55;;;;;;;;;;5033949;28;20045;-37
2021/12/29 01:05:56;;;;;;;8.85;4.40;;;;;;;;;;5033955;28;20029;-36
2021/12/29 01:08:21;;;;;;;8.45;3.75;;;;;;;;;;5033706;28;20060;-36
2021/12/29 01:10:47;;;;;;;6.40;4.10;;;;;;;;;;5033815;28;20040;-36
2021/12/29 01:13:18;;;;;;;7.90;4.00;;;;;;;;;;5033949;28;20037;-36
2021/12/29 01:16:16;;;;;;;9.18;4.47;;;;;;;;;;5033431;28;20037;-36
2021/12/29 01:18:43;;;;;;;10.43;4.97;;;;;;;;;;5033475;28;20030;-36
2021/12/29 01:21:09;;;;;;;7.78;4.20;;;;;;;;;;5033485;28;20020;-36
2021/12/29 01:23:34;;;;;;;6.38;3.92;;;;;;;;;;5033348;28;20089;-36
2021/12/29 01:25:59;;;;;;;8.88;4.07;;;;;;;;;;5033308;28;20061;-37
2021/12/29 01:28:25;;;;;;;6.72;3.78;;;;;;;;;;5033377;28;20039;-36
2021/12/29 01:30:51;;;;;;;7.93;4.22;;;;;;;;;;5033203;28;20522;-36
2021/12/29 01:33:17;;;;;;;9.02;5.30;;;;;;;;;;5033569;28;20037;-36
2021/12/29 01:35:42;;;;;;;8.20;4.85;;;;;;;;;;5033111;28;20017;-36
2021/12/29 01:38:08;;;;;;;8.95;3.78;;;;;;;;;;5033050;28;20041;-36
2021/12/29 01:40:35;;;;;;;7.78;4.70;;;;;;;;;;5033057;28;20079;-37
2021/12/29 01:43:03;;;;;;;7.68;4.20;;;;;;;;;;5033263;28;20111;-36
2021/12/29 01:45:28;;;;;;;9.30;4.30;;;;;;;;;;5033299;28;20125;-36
2021/12/29 01:47:54;;;;;;;9.85;4.85;;;;;;;;;;5033103;28;20455;-36
2021/12/29 01:50:20;;;;;;;6.35;4.15;;;;;;;;;;5033150;28;20045;-36
2021/12/29 01:52:54;;;;;;;6.05;3.60;;;;;;;;;;5032700;28;20041;-37
2021/12/29 01:55:19;;;;;;;8.98;4.43;;;;;;;;;;5032775;28;20459;-36
2021/12/29 01:57:45;;;;;;;8.35;4.47;;;;;;;;;;5032903;28;20029;-37
2021/12/29 02:00:13;;;;;;;7.95;4.65;;;;;;;;;;5033023;28;20376;-36
2021/12/29 02:02:39;;;;;;;8.80;4.57;;;;;;;;;;5032553;28;20018;-36
2021/12/29 02:05:05;;;;;;;6.68;4.20;;;;;;;;;;5032817;28;20056;-36
2021/12/29 02:07:31;;;;;;;11.68;5.10;;;;;;;;;;5032826;28;20429;-37
2021/12/29 02:09:56;;;;;;;8.23;4.90;;;;;;;;;;5032747;28;20112;-37
2021/12/29 02:12:22;;;;;;;14.77;6.13;;;;;;;;;;5032604;28;20017;-36
2021/12/29 02:14:48;;;;;;;11.38;5.20;;;;;;;;;;5032400;28;20065;-37
2021/12/29 02:17:14;;;;;;;8.85;5.60;;;;;;;;;;5031125;28;20024;-36
2021/12/29 02:19:45;;;;;;;10.85;4.65;;;;;;;;;;5032568;28;20037;-36
2021/12/29 02:22:22;;;;;;;7.80;4.22;;;;;;;;;;5032310;28;20388;-36
2021/12/29 02:24:54;;;;;;;11.23;5.05;;;;;;;;;;5032119;28;20045;-36
2021/12/29 02:27:19;;;;;;;10.65;4.82;;;;;;;;;;5032522;28;20423;-36
2021/12/29 02:29:47;;;;;;;7.65;4.25;;;;;;;;;;5032279;28;20102;-36
2021/12/29 02:32:13;;;;;;;9.15;5.05;;;;;;;;;;5032136;28;20396;-36
2021/12/29 02:34:38;;;;;;;11.52;5.55;;;;;;;;;;5031933;28;20025;-36
2021/12/29 02:37:04;;;;;;;12.63;6.20;;;;;;;;;;5032009;28;20041;-36
2021/12/29 02:39:32;;;;;;;9.85;4.95;;;;;;;;;;5032062;28;20033;-36
2021/12/29 02:42:01;;;;;;;12.77;5.75;;;;;;;;;;5031700;28;20100;-36
2021/12/29 02:44:28;;;;;;;10.45;4.90;;;;;;;;;;5031875;28;20049;-36
2021/12/29 02:46:55;;;;;;;13.00;6.18;;;;;;;;;;5032165;28;20792;-36
2021/12/29 02:49:21;;;;;;;10.75;5.50;;;;;;;;;;5031345;28;20510;-36
2021/12/29 02:51:47;;;;;;;13.95;6.25;;;;;;;;;;5031667;28;20061;-36
2021/12/29 02:54:13;;;;;;;13.88;4.93;;;;;;;;;;5031815;28;20037;-36
2021/12/29 02:56:38;;;;;;;11.95;5.05;;;;;;;;;;5031617;28;20498;-36
2021/12/29 02:59:04;;;;;;;12.20;5.32;;;;;;;;;;5031985;28;20083;-36
2021/12/29 03:01:30;;;;;;;10.10;5.88;;;;;;;;;;5031660;28;20065;-36
2021/12/29 03:03:56;;;;;;;15.35;5.25;;;;;;;;;;5031399;28;20033;-36
2021/12/29 03:06:21;;;;;;;13.23;5.45;;;;;;;;;;5031577;28;20060;-36
2021/12/29 03:08:47;;;;;;;10.70;6.00;;;;;;;;;;5031448;28;20025;-36
2021/12/29 03:11:12;;;;;;;9.30;5.18;;;;;;;;;;5031748;28;20070;-36
2021/12/29 03:13:39;;;;;;;13.25;5.85;;;;;;;;;;5031683;28;20025;-36
2021/12/29 03:16:05;;;;;;;9.15;4.53;;;;;;;;;;5031737;28;20029;-36
2021/12/29 03:18:30;;;;;;;16.85;6.85;;;;;;;;;;5031370;28;20533;-36
2021/12/29 03:20:56;;;;;;;11.15;5.65;;;;;;;;;;5031551;28;20025;-36
2021/12/29 03:23:22;;;;;;;14.40;6.00;;;;;;;;;;5031329;28;20079;-36
2021/12/29 03:25:48;;;;;;;12.05;7.22;;;;;;;;;;5031036;28;20029;-36
2021/12/29 03:28:14;;;;;;;10.82;5.80;;;;;;;;;;5031533;28;20036;-36
2021/12/29 03:30:43;;;;;;;10.48;5.63;;;;;;;;;;5031434;28;20038;-36
2021/12/29 03:33:09;;;;;;;11.90;6.10;;;;;;;;;;5031459;28;20013;-36
2021/12/29 03:35:39;;;;;;;16.45;6.95;;;;;;;;;;5031563;28;20033;-36
2021/12/29 03:38:05;;;;;;;12.95;5.93;;;;;;;;;;5031151;28;20503;-36
2021/12/29 03:40:31;;;;;;;14.00;7.45;;;;;;;;;;5031225;28;20132;-36
2021/12/29 03:42:57;;;;;;;18.02;7.38;;;;;;;;;;5031305;28;20120;-36
2021/12/29 03:45:23;;;;;;;13.82;6.10;;;;;;;;;;5031179;28;20472;-36
2021/12/29 03:47:48;;;;;;;12.80;5.85;;;;;;;;;;5031190;28;20020;-36
2021/12/29 03:50:14;;;;;;;8.13;4.72;;;;;;;;;;5031146;28;20057;-36
2021/12/29 03:52:39;;;;;;;10.43;5.55;;;;;;;;;;5031021;28;20433;-36
2021/12/29 03:55:05;;;;;;;16.05;6.32;;;;;;;;;;5030989;28;20057;-36
2021/12/29 03:57:30;;;;;;;16.02;7.95;;;;;;;;;;5031282;28;20014;-36
2021/12/29 03:59:56;;;;;;;16.27;6.93;;;;;;;;;;5031522;28;20041;-36
2021/12/29 04:02:21;;;;;;;15.60;5.95;;;;;;;;;;5035137;28;20025;-37
2021/12/29 04:04:47;;;;;;;12.68;5.18;;;;;;;;;;5034770;28;20399;-36
2021/12/29 04:07:13;;;;;;;13.15;7.32;;;;;;;;;;5034781;28;20017;-36
2021/12/29 04:09:38;;;;;;;17.08;6.65;;;;;;;;;;5034808;28;20104;-36
2021/12/29 04:12:04;;;;;;;12.73;6.63;;;;;;;;;;5034793;28;20049;-37
2021/12/29 04:14:29;;;;;;;13.48;6.53;;;;;;;;;;5034988;28;20504;-36
2021/12/29 04:16:57;;;;;;;13.02;7.00;;;;;;;;;;5034455;28;20749;-36
2021/12/29 04:19:39;;;;;;;12.30;5.70;;;;;;;;;;5034684;28;20029;-36
2021/12/29 04:22:07;;;;;;;14.93;7.00;;;;;;;;;;5034918;28;20142;-36
2021/12/29 04:24:33;;;;;;;22.98;6.95;;;;;;;;;;5034506;28;20036;-36
2021/12/29 04:26:59;;;;;;;12.60;7.47;;;;;;;;;;5034329;28;20033;-36
2021/12/29 04:29:25;;;;;;;17.75;7.07;;;;;;;;;;5034701;28;20086;-36
2021/12/29 04:31:50;;;;;;;22.92;8.52;;;;;;;;;;5034595;28;20116;-36
2021/12/29 04:34:16;;;;;;;16.92;7.65;;;;;;;;;;5034432;28;20032;-36
2021/12/29 04:36:41;;;;;;;12.45;6.47;;;;;;;;;;5034457;28;20029;-36
2021/12/29 04:39:07;;;;;;;14.20;6.05;;;;;;;;;;5034264;28;20021;-36
2021/12/29 04:41:33;;;;;;;12.32;5.72;;;;;;;;;;5034304;28;20132;-37
2021/12/29 04:43:58;;;;;;;10.75;6.85;;;;;;;;;;5034252;28;20602;-36
2021/12/29 04:46:35;;;;;;;11.95;5.20;;;;;;;;;;5034457;28;20423;-36
2021/12/29 04:49:02;;;;;;;13.35;6.05;;;;;;;;;;5034076;28;20029;-38
2021/12/29 04:51:34;;;;;;;12.13;5.07;;;;;;;;;;5034307;28;20092;-37
2021/12/29 04:54:00;;;;;;;14.68;5.43;;;;;;;;;;5034252;28;20061;-36
2021/12/29 04:56:26;;;;;;;13.50;6.15;;;;;;;;;;5033958;28;20084;-36
2021/12/29 04:58:51;;;;;;;18.10;6.20;;;;;;;;;;5033838;28;20037;-36
2021/12/29 05:01:17;;;;;;;22.80;8.25;;;;;;;;;;5033826;28;20438;-37
2021/12/29 05:03:44;;;;;;;12.85;7.03;;;;;;;;;;5033740;28;20397;-36
2021/12/29 05:08:35;;;;;;;11.55;6.43;;;;;;;;;;5034004;28;20498;-36
2021/12/29 05:11:03;;;;;;;16.77;6.30;;;;;;;;;;5033512;28;20022;-37
2021/12/29 05:13:29;;;;;;;14.80;7.85;;;;;;;;;;5033903;28;20032;-36
2021/12/29 05:15:55;;;;;;;22.23;8.10;;;;;;;;;;5033604;28;20014;-36
2021/12/29 05:18:21;;;;;;;13.30;6.68;;;;;;;;;;5033821;28;20515;-36
2021/12/29 05:20:47;;;;;;;11.52;6.95;;;;;;;;;;5033658;28;20033;-36
2021/12/29 05:23:13;;;;;;;9.32;5.43;;;;;;;;;;5033701;28;20042;-36
2021/12/29 05:25:38;;;;;;;8.98;5.22;;;;;;;;;;5033455;28;20387;-36
2021/12/29 05:28:03;;;;;;;13.40;5.10;;;;;;;;;;5032003;28;20030;-36
2021/12/29 05:30:29;;;;;;;11.77;5.28;;;;;;;;;;5033402;28;20364;-36
2021/12/29 05:32:54;;;;;;;8.20;4.38;;;;;;;;;;5015408;28;20037;-36
2021/12/29 05:35:20;;;;;;;8.30;5.93;;;;;;;;;;5033314;28;20026;-36
2021/12/29 05:37:45;;;;;;;12.52;4.97;;;;;;;;;;5033384;28;20030;-36
2021/12/29 05:40:11;;;;;;;9.25;4.10;;;;;;;;;;5033087;28;20022;-36
2021/12/29 05:42:37;;;;;;;8.73;4.85;;;;;;;;;;5033001;28;20057;-36
2021/12/29 05:45:06;;;;;;;7.70;4.55;;;;;;;;;;5032838;28;20403;-36
2021/12/29 05:47:32;;;;;;;8.10;4.65;;;;;;;;;;5032960;28;20021;-36
2021/12/29 05:49:57;;;;;;;9.70;4.45;;;;;;;;;;5032952;28;20025;-36
2021/12/29 05:52:23;;;;;;;12.85;5.68;;;;;;;;;;5033215;28;20376;-36
2021/12/29 05:54:48;;;;;;;8.50;5.00;;;;;;;;;;5033035;28;20453;-36
2021/12/29 05:57:14;;;;;;;10.52;4.25;;;;;;;;;;5031487;28;20040;-36
2021/12/29 05:59:39;;;;;;;13.13;5.68;;;;;;;;;;5032865;28;20025;-35
2021/12/29 06:02:05;;;;;;;7.18;4.63;;;;;;;;;;5032575;28;20037;-36
2021/12/29 06:04:31;;;;;;;11.23;5.70;;;;;;;;;;5032674;28;20041;-36
2021/12/29 06:06:57;;;;;;;13.20;5.85;;;;;;;;;;5032474;28;20032;-36
2021/12/29 06:09:22;;;;;;;9.18;5.05;;;;;;;;;;5032582;28;20025;-36
2021/12/29 06:11:48;;;;;;;11.23;6.57;;;;;;;;;;5032476;28;20041;-36
2021/12/29 06:14:13;;;;;;;9.80;4.68;;;;;;;;;;5032840;28;20025;-36
2021/12/29 06:16:39;;;;;;;15.10;5.35;;;;;;;;;;5032310;28;20112;-36
2021/12/29 06:19:07;;;;;;;9.05;4.25;;;;;;;;;;5032536;28;20161;-36
2021/12/29 06:21:33;;;;;;;13.73;5.10;;;;;;;;;;5032444;28;20025;-36
2021/12/29 06:23:58;;;;;;;5.97;4.07;;;;;;;;;;5031571;28;20464;-36
2021/12/29 06:26:24;;;;;;;11.15;4.88;;;;;;;;;;5032376;28;20029;-37
2021/12/29 06:28:49;;;;;;;11.63;5.03;;;;;;;;;;5032374;28;20379;-36
2021/12/29 06:31:15;;;;;;;10.30;5.55;;;;;;;;;;5032143;28;20030;-36
2021/12/29 06:33:40;;;;;;;9.45;5.32;;;;;;;;;;5032443;28;20029;-36
2021/12/29 06:36:06;;;;;;;7.00;4.40;;;;;;;;;;5032021;28;20036;-36
2021/12/29 06:38:33;;;;;;;10.15;4.78;;;;;;;;;;5031952;28;20032;-37
2021/12/29 06:40:58;;;;;;;6.60;4.43;;;;;;;;;;5031763;28;20246;-36
2021/12/29 06:43:24;;;;;;;12.18;6.00;;;;;;;;;;5032243;28;20041;-36
2021/12/29 06:45:49;;;;;;;17.65;8.40;;;;;;;;;;5031781;28;20104;-36
2021/12/29 06:48:15;;;;;;;7.45;4.90;;;;;;;;;;5032112;28;20091;-37
2021/12/29 06:50:41;;;;;;;15.07;7.47;;;;;;;;;;5032186;28;20496;-36
2021/12/29 06:53:07;;;;;;;12.40;5.72;;;;;;;;;;5032041;28;20379;-36
2021/12/29 06:55:32;;;;;;;13.00;6.18;;;;;;;;;;5031880;28;20303;-36
2021/12/29 06:57:58;;;;;;;8.48;4.13;;;;;;;;;;5031561;28;20025;-36
2021/12/29 07:00:23;;;;;;;11.60;5.95;;;;;;;;;;5030420;28;20064;-36
2021/12/29 07:02:49;;;;;;;9.73;4.80;;;;;;;;;;5031854;28;20056;-37
2021/12/29 07:05:15;;;;;;;13.40;5.45;;;;;;;;;;5031879;28;20049;-36
2021/12/29 07:07:42;;;;;;;6.38;4.07;;;;;;;;;;5031830;28;20434;-36
2021/12/29 07:10:07;;;;;;;6.75;4.03;;;;;;;;;;5031569;28;20030;-36
2021/12/29 07:12:33;;;;;;;11.80;5.03;;;;;;;;;;5031500;28;20029;-36
2021/12/29 07:14:59;;;;;;;7.45;4.53;;;;;;;;;;5031458;28;20040;-36
2021/12/29 07:17:24;;;;;;;9.18;4.65;;;;;;;;;;5031375;28;20033;-36
2021/12/29 07:19:50;;;;;;;7.32;4.00;;;;;;;;;;5031255;28;20026;-36
2021/12/29 07:22:15;;;;;;;8.15;5.00;;;;;;;;;;5031394;28;20013;-36
2021/12/29 07:24:40;;;;;;;9.90;5.88;;;;;;;;;;5031544;28;20048;-36
2021/12/29 07:27:06;;;;;;;10.10;4.80;;;;;;;;;;5031509;28;20368;-36
2021/12/29 07:29:31;;;;;;;7.00;4.65;;;;;;;;;;5031315;28;20055;-36
2021/12/29 07:31:58;;;;;;;7.22;4.40;;;;;;;;;;5031096;28;20021;-39
2021/12/29 07:34:24;;;;;;;5.13;3.63;;;;;;;;;;5031039;28;20125;-36
2021/12/29 07:36:50;;;;;;;9.25;4.22;;;;;;;;;;5031031;28;20021;-36
2021/12/29 07:39:16;;;;;;;10.05;4.70;;;;;;;;;;5031248;28;20080;-39
2021/12/29 07:41:42;;;;;;;6.80;3.60;;;;;;;;;;5031000;28;20080;-36
2021/12/29 07:44:08;;;;;;;8.68;4.45;;;;;;;;;;5030980;28;20579;-36
2021/12/29 07:46:34;;;;;;;7.70;4.68;;;;;;;;;;5031055;28;20460;-36
2021/12/29 07:49:00;;;;;;;9.60;4.55;;;;;;;;;;5031231;28;20038;-36
2021/12/29 07:51:26;;;;;;;8.20;4.82;;;;;;;;;;5031097;28;20021;-36
2021/12/29 07:53:52;;;;;;;7.57;4.05;;;;;;;;;;5031028;28;20112;-36
2021/12/29 07:56:17;;;;;;;7.15;4.97;;;;;;;;;;5030928;28;20092;-36
2021/12/29 07:58:43;;;;;;;6.57;4.35;;;;;;;;;;5031006;28;20128;-36
2021/12/29 08:01:08;;;;;;;6.70;4.05;;;;;;;;;;5030927;28;20021;-36
2021/12/29 08:03:34;;;;;;;8.23;4.15;;;;;;;;;;5030850;28;20041;-36
2021/12/29 08:06:00;;;;;;;5.72;3.42;;;;;;;;;;5030910;28;20048;-36
2021/12/29 08:08:25;;;;;;;9.25;3.95;;;;;;;;;;5030868;28;20041;-36
2021/12/29 08:10:51;;;;;;;5.72;3.55;;;;;;;;;;5031068;28;20033;-36
2021/12/29 08:13:16;;;;;;;8.68;4.43;;;;;;;;;;5030892;28;20033;-36
2021/12/29 08:15:41;;;;;;;11.60;3.70;;;;;;;;;;5031205;28;20021;-36
2021/12/29 08:18:07;;;;;;;7.03;4.63;;;;;;;;;;5030697;28;20429;-36
2021/12/29 08:20:33;;;;;;;7.30;3.75;;;;;;;;;;5030905;28;20032;-36
2021/12/29 08:22:59;;;;;;;6.88;4.10;;;;;;;;;;5030611;28;20044;-36
2021/12/29 08:25:25;;;;;;;6.38;4.10;;;;;;;;;;5031075;28;20037;-36
2021/12/29 08:27:50;;;;;;;7.07;4.30;;;;;;;;;;5030671;28;20379;-36
2021/12/29 08:30:16;;;;;;;7.97;4.90;;;;;;;;;;5031083;28;20025;-36
2021/12/29 08:32:43;;;;;;;6.13;3.88;;;;;;;;;;5031007;28;20045;-36
2021/12/29 08:35:08;;;;;;;5.82;3.40;;;;;;;;;;5030606;28;20384;-36
2021/12/29 08:37:34;;;;;;;8.40;4.38;;;;;;;;;;5030931;28;20036;-36
2021/12/29 08:40:00;;;;;;;7.38;3.60;;;;;;;;;;5030752;28;20025;-36
2021/12/29 08:42:26;;;;;;;6.65;3.88;;;;;;;;;;5030572;28;20385;-36
2021/12/29 08:44:52;;;;;;;7.68;3.97;;;;;;;;;;5030430;28;20476;-36
2021/12/29 08:47:18;;;;;;;6.80;3.65;;;;;;;;;;5033076;28;20053;-36
2021/12/29 08:49:44;;;;;;;8.23;3.65;;;;;;;;;;5034246;28;20492;-36
2021/12/29 08:52:10;;;;;;;6.88;3.17;;;;;;;;;;5034270;28;20109;-36
2021/12/29 08:54:37;;;;;;;6.90;3.05;;;;;;;;;;5034005;28;20030;-36
2021/12/29 08:57:02;;;;;;;7.60;4.22;;;;;;;;;;5033880;28;20088;-36
2021/12/29 08:59:28;;;;;;;8.00;4.63;;;;;;;;;;5034168;28;20022;-36
2021/12/29 09:01:54;;;;;;;6.53;3.88;;;;;;;;;;5033894;28;20380;-37
2021/12/29 09:04:20;;;;;;;7.68;4.05;;;;;;;;;;5033801;28;20030;-36
2021/12/29 09:06:46;;;;;;;5.75;3.88;;;;;;;;;;5033879;28;20029;-36
2021/12/29 09:09:11;;;;;;;7.90;4.45;;;;;;;;;;5034055;28;20040;-39
2021/12/29 09:11:38;;;;;;;5.57;3.92;;;;;;;;;;5033743;28;20021;-36
2021/12/29 09:14:03;;;;;;;6.18;3.78;;;;;;;;;;5033526;28;20829;-36
2021/12/29 09:16:29;;;;;;;9.57;4.40;;;;;;;;;;5033509;28;20030;-36
2021/12/29 09:18:55;;;;;;;6.57;3.97;;;;;;;;;;5033483;28;20057;-36
2021/12/29 09:21:21;;;;;;;9.50;4.43;;;;;;;;;;5033482;28;20040;-36
2021/12/29 09:23:47;;;;;;;6.13;3.63;;;;;;;;;;5033324;28;20037;-36
2021/12/29 09:26:14;;;;;;;5.30;3.33;;;;;;;;;;5033453;28;20030;-36
2021/12/29 09:28:40;;;;;;;5.68;3.28;;;;;;;;;;5033420;28;20017;-36
2021/12/29 09:31:05;;;;;;;4.78;3.08;;;;;;;;;;5033308;28;20064;-35
2021/12/29 09:33:31;;;;;;;3.95;3.15;;;;;;;;;;5032131;28;20738;-36
2021/12/29 09:36:01;;;;;;;7.28;3.22;;;;;;;;;;5033061;28;20057;-36
2021/12/29 09:38:27;;;;;;;4.40;3.38;;;;;;;;;;5033499;28;20037;-39
2021/12/29 09:40:52;;;;;;;8.05;3.85;;;;;;;;;;5032990;28;20061;-36
2021/12/29 09:43:19;;;;;;;4.53;3.47;;;;;;;;;;5033071;28;20095;-36
2021/12/29 09:45:46;;;;;;;5.85;3.60;;;;;;;;;;5033127;28;20080;-36
2021/12/29 09:48:12;;;;;;;7.90;3.67;;;;;;;;;;5032994;28;20423;-36
2021/12/29 09:50:38;;;;;;;3.60;2.58;;;;;;;;;;5032910;28;20087;-36
2021/12/29 09:53:04;;;;;;;4.05;2.85;;;;;;;;;;5032891;28;20067;-36
2021/12/29 09:55:30;;;;;;;5.85;3.47;;;;;;;;;;5032894;28;20507;-36
2021/12/29 09:57:56;;;;;;;4.65;2.28;;;;;;;;;;5031578;28;20021;-36
2021/12/29 10:00:27;;;;;;;4.32;3.05;;;;;;;;;;5033090;28;20060;-36
2021/12/29 10:02:54;;;;;;;2.65;2.25;;;;;;;;;;5032686;28;20030;-36
2021/12/29 10:05:20;;;;;;;4.43;2.72;;;;;;;;;;5032619;28;20041;-36
2021/12/29 10:07:56;;;;;;;3.85;2.30;;;;;;;;;;5032543;28;20395;-36
2021/12/29 10:10:21;;;;;;;4.75;2.42;;;;;;;;;;5032959;28;20102;-37
2021/12/29 10:12:47;;;;;;;4.53;2.45;;;;;;;;;;5047867;28;20022;-36
2021/12/29 10:15:13;;;;;;;2.97;1.88;;;;;;;;;;5032586;28;20404;-36
2021/12/29 10:17:38;;;;;;;4.43;2.60;;;;;;;;;;5032401;28;20026;-36
2021/12/29 10:20:07;;;;;;;3.85;1.70;;;;;;;;;;5032377;28;20321;-36
2021/12/29 10:22:32;;;;;;;4.25;2.47;;;;;;;;;;5032716;28;20021;-36
2021/12/29 10:25:03;;;;;;;2.85;1.88;;;;;;;;;;5032051;28;20052;-36
2021/12/29 10:27:32;;;;;;;2.33;1.98;;;;;;;;;;5031094;28;20030;-36
2021/12/29 10:29:58;;;;;;;4.60;2.30;;;;;;;;;;5032381;28;20034;-36
2021/12/29 10:32:24;;;;;;;3.58;1.95;;;;;;;;;;5032251;28;20494;-36
2021/12/29 10:34:51;;;;;;;3.70;2.38;;;;;;;;;;5032111;28;20484;-36
2021/12/29 10:37:17;;;;;;;3.67;2.13;;;;;;;;;;5032405;28;20383;-36
2021/12/29 10:39:46;;;;;;;4.55;1.67;;;;;;;;;;5032009;28;20021;-36
2021/12/29 10:42:12;;;;;;;4.22;2.83;;;;;;;;;;5031906;28;20088;-37
2021/12/29 10:44:39;;;;;;;3.78;2.40;;;;;;;;;;5032191;28;20069;-36
2021/12/29 10:47:18;;;;;;;4.50;2.45;;;;;;;;;;5031971;28;20024;-36
2021/12/29 10:49:58;;;;;;;4.10;2.42;;;;;;;;;;5031928;28;20025;-36
2021/12/29 10:52:37;;;;;;;7.60;2.67;;;;;;;;;;5031867;28;20479;-36
2021/12/29 10:55:04;;;;;;;4.18;2.40;;;;;;;;;;5031690;28;20034;-36
2021/12/29 10:57:30;;;;;;;7.45;2.78;;;;;;;;;;5032012;28;20021;-39
2021/12/29 10:59:58;;;;;;;2.28;1.88;;;;;;;;;;5031683;28;20026;-36
2021/12/29 11:02:31;;;;;;;2.70;1.90;;;;;;;;;;5031943;28;20079;-36
2021/12/29 11:04:57;;;;;;;5.55;2.72;;;;;;;;;;5031723;28;20041;-38
2021/12/29 11:07:27;;;;;;;3.58;2.13;;;;;;;;;;5031536;28;20044;-36
2021/12/29 11:09:53;;;;;;;2.95;2.03;;;;;;;;;;5029890;28;20549;-36
2021/12/29 11:12:20;;;;;;;2.72;2.22;;;;;;;;;;5031587;28;20029;-37
2021/12/29 11:14:50;;;;;;;2.13;1.52;;;;;;;;;;5031431;28;20567;-36
2021/12/29 11:17:20;;;;;;;2.80;1.67;;;;;;;;;;5031403;28;20079;-36
2021/12/29 11:19:56;;;;;;;3.95;2.28;;;;;;;;;;5031476;28;20492;-36
2021/12/29 11:22:24;;;;;;;2.67;2.28;;;;;;;;;;5031439;28;20040;-36
2021/12/29 11:24:54;;;;;;;2.38;1.40;;;;;;;;;;5031431;28;20037;-37
2021/12/29 11:27:20;;;;;;;3.47;2.63;;;;;;;;;;5031374;28;20109;-36
2021/12/29 11:29:59;;;;;;;6.13;1.75;;;;;;;;;;5031308;28;20112;-35
2021/12/29 11:32:27;;;;;;;2.60;1.67;;;;;;;;;;5031649;28;20041;-36
2021/12/29 11:35:01;;;;;;;3.10;1.55;;;;;;;;;;5031399;28;20517;-36
2021/12/29 11:37:27;;;;;;;3.65;1.90;;;;;;;;;;5031089;28;20046;-37
2021/12/29 11:39:53;;;;;;;4.32;2.50;;;;;;;;;;5031380;28;20033;-36
2021/12/29 11:42:19;;;;;;;3.47;2.03;;;;;;;;;;5031102;28;20412;-36
2021/12/29 11:44:44;;;;;;;5.55;1.73;;;;;;;;;;5031107;28;20046;-36
2021/12/29 11:47:11;;;;;;;3.42;2.10;;;;;;;;;;5031009;28;20038;-36
2021/12/29 11:49:37;;;;;;;4.05;1.58;;;;;;;;;;5031161;28;20522;-36
2021/12/29 11:52:05;;;;;;;2.92;1.65;;;;;;;;;;5031003;28;20037;-36
2021/12/29 11:54:36;;;;;;;3.25;2.30;;;;;;;;;;5031398;28;20116;-36
2021/12/29 11:57:12;;;;;;;1.85;1.42;;;;;;;;;;5030916;28;20091;-36
2021/12/29 11:59:37;;;;;;;1.77;1.35;;;;;;;;;;5031026;28;20025;-36
2021/12/29 12:02:03;;;;;;;2.33;1.15;;;;;;;;;;5030977;28;20033;-36
2021/12/29 12:04:29;;;;;;;3.70;1.95;;;;;;;;;;5031222;28;20136;-36
2021/12/29 12:07:02;;;;;;;2.50;2.30;;;;;;;;;;5030803;28;20040;-36
2021/12/29 12:09:28;;;;;;;4.00;2.00;;;;;;;;;;5031002;28;20041;-36
2021/12/29 12:11:54;;;;;;;3.40;1.60;;;;;;;;;;5030846;28;20022;-36
2021/12/29 12:14:20;;;;;;;1.95;1.75;;;;;;;;;;5030911;28;20040;-36
2021/12/29 12:16:50;;;;;;;7.63;1.70;;;;;;;;;;5031121;28;20022;-36
2021/12/29 12:19:20;;;;;;;4.10;2.70;;;;;;;;;;5031121;28;20056;-36
2021/12/29 12:21:46;;;;;;;2.83;1.90;;;;;;;;;;5032765;28;20079;-36
2021/12/29 12:24:12;;;;;;;5.40;2.22;;;;;;;;;;5034769;28;20396;-36
2021/12/29 12:26:53;;;;;;;3.13;1.67;;;;;;;;;;5033264;28;20017;-36
2021/12/29 12:29:21;;;;;;;3.88;1.75;;;;;;;;;;5034570;28;20040;-36
2021/12/29 12:32:00;;;;;;;1.48;1.33;;;;;;;;;;5034568;28;20108;-36
2021/12/29 12:34:25;;;;;;;3.58;1.80;;;;;;;;;;5034366;28;20496;-36
2021/12/29 12:36:51;;;;;;;2.90;1.80;;;;;;;;;;5034574;28;20029;-36
2021/12/29 12:39:18;;;;;;;2.10;1.40;;;;;;;;;;5034604;28;20037;-36
2021/12/29 12:41:45;;;;;;;1.40;1.30;;;;;;;;;;5034193;28;20058;-36
2021/12/29 12:44:11;;;;;;;3.70;1.38;;;;;;;;;;5034115;28;20128;-36
2021/12/29 12:46:40;;;;;;;3.45;1.85;;;;;;;;;;5033242;28;20100;-36
2021/12/29 12:49:15;;;;;;;2.50;1.40;;;;;;;;;;5034066;28;20087;-36
2021/12/29 12:51:40;;;;;;;2.15;1.50;;;;;;;;;;5034375;28;20104;-36
2021/12/29 12:54:19;;;;;;;2.90;1.65;;;;;;;;;;5033995;28;20552;-36
2021/12/29 12:56:46;;;;;;;1.98;1.65;;;;;;;;;;5034027;28;20037;-37
2021/12/29 12:59:12;;;;;;;5.82;1.73;;;;;;;;;;5034246;28;20423;-36
2021/12/29 13:01:42;;;;;;;3.42;1.65;;;;;;;;;;5034166;28;20354;-36
2021/12/29 13:04:09;;;;;;;1.52;1.20;;;;;;;;;;5034085;28;20411;-36
2021/12/29 13:06:35;;;;;;;2.58;1.65;;;;;;;;;;5034149;28;20047;-36
2021/12/29 13:09:02;;;;;;;2.42;1.73;;;;;;;;;;5033640;28;20049;-36
2021/12/29 13:11:31;;;;;;;2.00;1.35;;;;;;;;;;5033831;28;20018;-36
2021/12/29 13:13:57;;;;;;;1.35;1.13;;;;;;;;;;5033938;28;20028;-36
2021/12/29 13:16:24;;;;;;;5.07;1.60;;;;;;;;;;5033862;28;20021;-36
2021/12/29 13:18:49;;;;;;;2.47;1.42;;;;;;;;;;5033454;28;20018;-36
2021/12/29 13:21:17;;;;;;;3.53;1.52;;;;;;;;;;5033683;28;20380;-36
2021/12/29 13:23:45;;;;;;;1.60;1.05;;;;;;;;;;5033393;28;20037;-36
2021/12/29 13:26:10;;;;;;;1.33;0.82;;;;;;;;;;5033378;28;20025;-36
2021/12/29 13:28:36;;;;;;;2.30;1.35;;;;;;;;;;5033510;28;20029;-36
2021/12/29 13:31:05;;;;;;;3.38;1.70;;;;;;;;;;5033225;28;20476;-36
2021/12/29 13:33:40;;;;;;;3.80;1.83;;;;;;;;;;5033140;28;20083;-36
2021/12/29 13:36:06;;;;;;;1.85;1.45;;;;;;;;;;5033430;28;20411;-36
2021/12/29 13:38:32;;;;;;;3.72;2.05;;;;;;;;;;5033199;28;20083;-36
2021/12/29 13:41:02;;;;;;;4.05;2.22;;;;;;;;;;5032914;28;20052;-36
2021/12/29 13:43:29;;;;;;;3.95;1.75;;;;;;;;;;5033179;28;20029;-36
2021/12/29 13:45:56;;;;;;;3.47;1.58;;;;;;;;;;5033016;28;20060;-36
2021/12/29 13:48:26;;;;;;;2.50;2.15;;;;;;;;;;5033099;28;20013;-36
2021/12/29 13:50:54;;;;;;;3.78;2.03;;;;;;;;;;5032963;28;20518;-36
2021/12/29 13:53:20;;;;;;;4.20;2.65;;;;;;;;;;5032986;28;20025;-36
2021/12/29 13:55:45;;;;;;;2.55;1.98;;;;;;;;;;5032926;28;20045;-37
2021/12/29 13:58:15;;;;;;;2.97;1.83;;;;;;;;;;5033136;28;20026;-36
2021/12/29 14:00:40;;;;;;;2.38;1.80;;;;;;;;;;5033141;28;20033;-36
2021/12/29 14:03:06;;;;;;;4.15;2.40;;;;;;;;;;5033015;28;20025;-36
2021/12/29 14:05:50;;;;;;;4.80;2.10;;;;;;;;;;5032567;28;20557;-36
2021/12/29 14:08:17;;;;;;;1.98;1.80;;;;;;;;;;5033071;28;20442;-36
2021/12/29 14:10:44;;;;;;;2.28;1.55;;;;;;;;;;5032677;28;20018;-36
2021/12/29 14:13:14;;;;;;;4.57;2.25;;;;;;;;;;5032514;28;20044;-36
2021/12/29 14:15:40;;;;;;;3.67;2.10;;;;;;;;;;5032407;28;20042;-36
2021/12/29 14:18:14;;;;;;;4.40;2.22;;;;;;;;;;5032706;28;20392;-36
2021/12/29 14:20:39;;;;;;;2.75;1.75;;;;;;;;;;5032393;28;20025;-36
2021/12/29 14:23:05;;;;;;;2.50;1.83;;;;;;;;;;5032364;28;20032;-36
2021/12/29 14:25:35;;;;;;;2.08;1.85;;;;;;;;;;5032534;28;20049;-36
2021/12/29 14:28:01;;;;;;;3.50;1.95;;;;;;;;;;5032205;28;20116;-36
2021/12/29 14:30:27;;;;;;;2.33;1.77;;;;;;;;;;5032343;28;20021;-36
2021/12/29 14:32:57;;;;;;;4.20;2.10;;;;;;;;;;5032122;28;20029;-36
2021/12/29 14:35:24;;;;;;;2.17;1.73;;;;;;;;;;5032106;28;20464;-36
2021/12/29 14:37:50;;;;;;;2.13;1.92;;;;;;;;;;5032165;28;20030;-36
2021/12/29 14:40:26;;;;;;;4.97;2.28;;;;;;;;;;5032112;28;20115;-36